createdAt,value
2022-12-23T18:20:35.429Z,53.90
2022-12-23T18:23:04.164Z,63.38
2022-12-23T18:25:33.100Z,65.80
2022-12-23T18:28:01.580Z,61.47
2022-12-23T18:30:29.966Z,57.83
2022-12-23T18:32:58.254Z,57.72
2022-12-23T18:35:46.603Z,55.83
2022-12-23T18:38:16.038Z,55.33
2022-12-23T18:40:45.329Z,52.20
2022-12-23T18:43:24.443Z,53.33
2022-12-23T18:45:54.245Z,51.05
2022-12-23T18:48:22.813Z,54.40
2022-12-23T18:50:51.476Z,51.72
2022-12-23T18:53:24.910Z,53.25
2022-12-23T18:55:54.623Z,53.75
2022-12-23T18:58:23.909Z,51.30
2022-12-23T19:00:53.466Z,49.90
2022-12-23T19:03:27.180Z,51.47
2022-12-23T19:05:57.345Z,50.63
2022-12-23T19:08:27.979Z,51.25
2022-12-23T19:10:56.820Z,49.88
2022-12-23T19:13:25.606Z,51.35
2022-12-23T19:15:53.753Z,50.83
2022-12-23T19:18:22.485Z,51.45
2022-12-23T19:20:51.210Z,49.75
2022-12-23T19:23:19.694Z,50.97
2022-12-23T19:25:54.840Z,48.67
2022-12-23T19:28:23.694Z,48.08
2022-12-23T19:30:52.025Z,48.60
2022-12-23T19:33:20.261Z,48.63
2022-12-23T19:35:48.490Z,45.92
2022-12-23T19:38:16.395Z,47.95
2022-12-23T19:40:44.696Z,48.42
2022-12-23T19:43:13.172Z,47.50
2022-12-23T19:45:41.977Z,47.05
2022-12-23T19:48:10.237Z,46.95
2022-12-23T19:50:38.460Z,50.85
2022-12-23T19:53:06.517Z,48.13
2022-12-23T19:55:35.027Z,47.92
2022-12-23T19:58:03.141Z,49.92
2022-12-23T20:00:31.553Z,48.78
2022-12-23T20:02:59.997Z,46.88
2022-12-23T20:05:28.972Z,50.53
2022-12-23T20:07:57.677Z,54.88
2022-12-23T20:10:25.779Z,63.00
2022-12-23T20:12:53.862Z,51.75
2022-12-23T20:15:22.165Z,50.08
2022-12-23T20:17:50.356Z,50.08
2022-12-23T20:20:18.764Z,49.15
2022-12-23T20:22:47.096Z,52.53
2022-12-23T20:25:15.372Z,51.35
2022-12-23T20:27:44.168Z,52.17
2022-12-23T20:30:12.757Z,48.85
2022-12-23T20:32:41.434Z,51.30
2022-12-23T20:35:09.994Z,49.95
2022-12-23T20:37:38.206Z,50.78
2022-12-23T20:40:08.032Z,48.72
2022-12-23T20:42:36.869Z,49.70
2022-12-23T20:45:05.358Z,52.30
2022-12-23T20:47:33.641Z,49.63
2022-12-23T20:50:01.881Z,51.60
2022-12-23T20:52:30.204Z,49.80
2022-12-23T20:54:59.108Z,50.95
2022-12-23T20:57:28.102Z,49.03
2022-12-23T20:59:56.863Z,48.92
2022-12-23T21:02:25.573Z,50.13
2022-12-23T21:04:53.978Z,49.33
2022-12-23T21:07:22.101Z,51.65
2022-12-23T21:09:50.980Z,49.90
2022-12-23T21:12:19.393Z,49.78
2022-12-23T21:14:47.626Z,50.42
2022-12-23T21:17:15.819Z,47.00
2022-12-23T21:19:44.472Z,47.10
2022-12-23T21:22:12.875Z,50.05
2022-12-23T21:24:41.121Z,47.00
2022-12-23T21:27:09.377Z,48.30
2022-12-23T21:29:38.040Z,48.70
2022-12-23T21:32:06.305Z,48.35
2022-12-23T21:34:34.497Z,49.40
2022-12-23T21:37:02.549Z,49.15
2022-12-23T21:39:31.196Z,48.53
2022-12-23T21:41:59.318Z,48.00
2022-12-23T21:44:27.954Z,48.30
2022-12-23T21:46:56.218Z,49.33
2022-12-23T21:49:24.367Z,48.70
2022-12-23T21:51:53.680Z,45.97
2022-12-23T21:54:22.464Z,45.38
2022-12-23T21:56:50.583Z,47.10
2022-12-23T21:59:18.694Z,47.35
2022-12-23T22:01:46.905Z,48.20
2022-12-23T22:04:15.082Z,51.67
2022-12-23T22:06:45.164Z,50.70
2022-12-23T22:09:16.567Z,51.08
2022-12-23T22:11:46.314Z,49.05
2022-12-23T22:14:16.931Z,53.33
2022-12-23T22:16:45.346Z,51.38
2022-12-23T22:19:17.511Z,54.78
2022-12-23T22:21:46.274Z,53.40
2022-12-23T22:24:15.287Z,53.38
2022-12-23T22:26:43.842Z,53.67
2022-12-23T22:29:12.399Z,52.13
2022-12-23T22:31:53.448Z,52.92
2022-12-23T22:34:23.123Z,53.05
2022-12-23T22:36:51.532Z,50.88
2022-12-23T22:39:22.107Z,49.45
2022-12-23T22:41:51.561Z,53.83
2022-12-23T22:44:21.081Z,50.25
2022-12-23T22:46:49.775Z,51.85
2022-12-23T22:49:18.495Z,50.47
2022-12-23T22:51:46.591Z,51.20
2022-12-23T22:54:15.027Z,52.80
2022-12-23T22:56:46.086Z,53.45
2022-12-23T22:59:23.547Z,52.53
2022-12-23T23:01:53.547Z,52.10
2022-12-23T23:04:21.789Z,51.42
2022-12-23T23:06:52.993Z,55.05
2022-12-23T23:09:22.385Z,54.40
2022-12-23T23:11:51.167Z,54.35
2022-12-23T23:14:20.248Z,52.05
2022-12-23T23:16:48.588Z,53.47
2022-12-23T23:19:20.865Z,49.55
2022-12-23T23:21:49.675Z,49.88
2022-12-23T23:24:17.870Z,50.85
2022-12-23T23:26:46.514Z,51.05
2022-12-23T23:29:15.618Z,49.00
2022-12-23T23:31:44.934Z,49.97
2022-12-23T23:34:14.137Z,50.70
2022-12-23T23:36:42.661Z,50.35
2022-12-23T23:39:14.177Z,50.10
2022-12-23T23:41:42.766Z,48.58
2022-12-23T23:44:11.637Z,50.60
2022-12-23T23:46:40.379Z,50.80
2022-12-23T23:49:09.274Z,50.10
2022-12-23T23:51:38.078Z,48.67
2022-12-23T23:54:07.054Z,49.08
2022-12-23T23:56:38.823Z,49.45
2022-12-23T23:59:09.003Z,50.53
